Time,TemperatureF,DewpointF,PressureIn,WindDirection,WindDirectionDegrees,WindSpeedMPH,WindSpeedGustMPH,Humidity,HourlyPrecipIn,Conditions,Clouds,dailyrainin,SoftwareType,DateUTC
2013-05-08 00:13:00,54.3,48.0,30.08,NNE,23,1.0,1.0,78,0.00,,,0.00,weatherlink.com 1.10,2013-05-08 04:13:00,
2013-05-08 00:28:00,53.9,47.0,30.09,NNE,30,0.0,1.0,78,0.00,,,0.00,weatherlink.com 1.10,2013-05-08 04:28:00,
2013-05-08 00:43:00,53.6,47.0,30.09,NNE,30,0.0,0.0,79,0.00,,,0.00,weatherlink.com 1.10,2013-05-08 04:43:00,
2013-05-08 00:58:00,53.4,48.0,30.09,NNE,30,0.0,1.0,82,0.00,,,0.00,weatherlink.com 1.10,2013-05-08 04:58:00,
2013-05-08 01:13:00,53.6,49.0,30.09,NNE,30,0.0,1.0,84,0.00,,,0.00,weatherlink.com 1.10,2013-05-08 05:13:00,
2013-05-08 01:28:00,53.7,49.0,30.09,WNW,285,0.0,1.0,84,0.00,,,0.00,weatherlink.com 1.10,2013-05-08 05:28:00,
2013-05-08 01:43:00,53.4,49.0,30.09,WNW,286,0.0,0.0,84,0.00,,,0.00,weatherlink.com 1.10,2013-05-08 05:43:00,
2013-05-08 01:58:00,53.4,49.0,30.09,NW,317,0.0,1.0,85,0.00,,,0.00,weatherlink.com 1.10,2013-05-08 05:58:00,
2013-05-08 02:13:00,53.0,49.0,30.09,NW,317,0.0,0.0,85,0.00,,,0.00,weatherlink.com 1.10,2013-05-08 06:13:00,
2013-05-08 02:28:00,52.9,50.0,30.09,NW,317,0.0,0.0,88,0.00,,,0.00,weatherlink.com 1.10,2013-05-08 06:28:00,
2013-05-08 02:43:00,52.5,49.0,30.09,NW,318,0.0,0.0,89,0.00,,,0.00,weatherlink.com 1.10,2013-05-08 06:43:00,
2013-05-08 02:58:00,52.3,49.0,30.09,NW,318,0.0,0.0,89,0.00,,,0.00,weatherlink.com 1.10,2013-05-08 06:58:00,
2013-05-08 03:13:00,51.8,49.0,30.10,NW,318,0.0,0.0,90,0.00,,,0.00,weatherlink.com 1.10,2013-05-08 07:13:00,
2013-05-08 03:28:00,51.7,49.0,30.10,NW,318,0.0,0.0,90,0.00,,,0.00,weatherlink.com 1.10,2013-05-08 07:28:00,
2013-05-08 03:44:00,51.6,49.0,30.10,NW,318,0.0,0.0,91,0.00,,,0.00,weatherlink.com 1.10,2013-05-08 07:44:00,
2013-05-08 03:58:00,51.4,49.0,30.10,NW,318,0.0,0.0,91,0.00,,,0.00,weatherlink.com 1.10,2013-05-08 07:58:00,
2013-05-08 04:13:00,50.8,49.0,30.10,NW,318,0.0,0.0,92,0.00,,,0.00,weatherlink.com 1.10,2013-05-08 08:13:00,
2013-05-08 04:28:00,50.4,48.0,30.10,NW,318,0.0,0.0,92,0.00,,,0.00,weatherlink.com 1.10,2013-05-08 08:28:00,
2013-05-08 04:44:00,50.0,48.0,30.11,NW,318,0.0,0.0,93,0.00,,,0.00,weatherlink.com 1.10,2013-05-08 08:44:00,
2013-05-08 04:59:00,50.0,48.0,30.11,NW,318,0.0,1.0,93,0.00,,,0.00,weatherlink.com 1.10,2013-05-08 08:59:00,
2013-05-08 05:14:00,49.4,48.0,30.11,NW,318,0.0,0.0,94,0.00,,,0.00,weatherlink.com 1.10,2013-05-08 09:14:00,
2013-05-08 05:29:00,49.6,48.0,30.11,NW,318,0.0,0.0,94,0.00,,,0.00,weatherlink.com 1.10,2013-05-08 09:29:00,
2013-05-08 05:44:00,49.5,48.0,30.12,NW,318,0.0,0.0,94,0.00,,,0.00,weatherlink.com 1.10,2013-05-08 09:44:00,
2013-05-08 05:59:00,49.1,48.0,30.12,NW,318,0.0,0.0,94,0.00,,,0.00,weatherlink.com 1.10,2013-05-08 09:59:00,
2013-05-08 06:14:00,49.7,48.0,30.12,NW,318,0.0,0.0,95,0.00,,,0.00,weatherlink.com 1.10,2013-05-08 10:14:00,
2013-05-08 06:29:00,51.9,50.0,30.13,NW,318,0.0,0.0,93,0.00,,,0.00,weatherlink.com 1.10,2013-05-08 10:29:00,
2013-05-08 06:44:00,55.2,51.0,30.13,NW,317,0.0,0.0,86,0.00,,,0.00,weatherlink.com 1.10,2013-05-08 10:44:00,
2013-05-08 06:59:00,57.5,53.0,30.13,NW,317,0.0,0.0,85,0.00,,,0.00,weatherlink.com 1.10,2013-05-08 10:59:00,
2013-05-08 07:14:00,59.4,53.0,30.13,NW,309,0.0,0.0,80,0.00,,,0.00,weatherlink.com 1.10,2013-05-08 11:14:00,
2013-05-08 07:29:00,62.5,56.0,30.14,East,89,1.0,1.0,78,0.00,,,0.00,weatherlink.com 1.10,2013-05-08 11:29:00,
2013-05-08 07:44:00,62.4,56.0,30.14,South,178,0.0,1.0,80,0.00,,,0.00,weatherlink.com 1.10,2013-05-08 11:44:00,
2013-05-08 07:59:00,62.9,57.0,30.14,SE,133,0.0,1.0,80,0.00,,,0.00,weatherlink.com 1.10,2013-05-08 11:59:00,
2013-05-08 08:14:00,65.2,57.0,30.14,SE,143,1.0,1.0,76,0.00,,,0.00,weatherlink.com 1.10,2013-05-08 12:14:00,
2013-05-08 08:29:00,66.2,57.0,30.14,SE,141,0.0,1.0,72,0.00,,,0.00,weatherlink.com 1.10,2013-05-08 12:29:00,
2013-05-08 08:44:00,66.7,57.0,30.14,ESE,103,2.0,4.0,72,0.00,,,0.00,weatherlink.com 1.10,2013-05-08 12:44:00,
2013-05-08 09:00:00,66.0,56.0,30.14,ESE,103,3.0,5.0,71,0.00,,,0.00,weatherlink.com 1.10,2013-05-08 13:00:00,
2013-05-08 09:14:00,66.0,56.0,30.14,ESE,122,2.0,5.0,71,0.00,,,0.00,weatherlink.com 1.10,2013-05-08 13:14:00,
2013-05-08 09:29:00,67.5,57.0,30.14,SE,128,3.0,4.0,70,0.00,,,0.00,weatherlink.com 1.10,2013-05-08 13:29:00,
2013-05-08 09:44:00,68.9,57.0,30.13,North,11,0.0,3.0,65,0.00,,,0.00,weatherlink.com 1.10,2013-05-08 13:44:00,
2013-05-08 09:59:00,70.8,57.0,30.13,SE,141,3.0,5.0,63,0.00,,,0.00,weatherlink.com 1.10,2013-05-08 13:59:00,
2013-05-08 10:14:00,72.3,57.0,30.12,SE,143,4.0,6.0,59,0.00,,,0.00,weatherlink.com 1.10,2013-05-08 14:14:00,
2013-05-08 10:29:00,72.1,55.0,30.12,SE,131,7.0,9.0,55,0.00,,,0.00,weatherlink.com 1.10,2013-05-08 14:29:00,
2013-05-08 10:44:00,72.6,55.0,30.12,SE,133,3.0,9.0,54,0.00,,,0.00,weatherlink.com 1.10,2013-05-08 14:44:00,
2013-05-08 11:00:00,73.1,53.0,30.11,ESE,114,5.0,10.0,50,0.00,,,0.00,weatherlink.com 1.10,2013-05-08 15:00:00,
2013-05-08 11:15:00,74.9,53.0,30.10,SSE,156,6.0,11.0,47,0.00,,,0.00,weatherlink.com 1.10,2013-05-08 15:15:00,
2013-05-08 11:30:00,75.2,54.0,30.10,SSE,165,8.0,9.0,47,0.00,,,0.00,weatherlink.com 1.10,2013-05-08 15:30:00,
2013-05-08 11:45:00,75.4,54.0,30.09,ESE,115,3.0,12.0,47,0.00,,,0.00,weatherlink.com 1.10,2013-05-08 15:45:00,
2013-05-08 12:00:00,76.3,53.0,30.09,SE,124,4.0,12.0,45,0.00,,,0.00,weatherlink.com 1.10,2013-05-08 16:00:00,
2013-05-08 12:15:00,77.6,55.0,30.08,ESE,111,6.0,10.0,46,0.00,,,0.00,weatherlink.com 1.10,2013-05-08 16:15:00,
2013-05-08 12:30:00,78.2,54.0,30.08,SSW,210,2.0,12.0,43,0.00,,,0.00,weatherlink.com 1.10,2013-05-08 16:30:00,
2013-05-08 12:45:00,78.1,52.0,30.07,West,259,10.0,18.0,40,0.00,,,0.00,weatherlink.com 1.10,2013-05-08 16:45:00,
2013-05-08 13:00:00,76.9,52.0,30.07,SW,223,2.0,16.0,42,0.00,,,0.00,weatherlink.com 1.10,2013-05-08 17:00:00,
2013-05-08 13:15:00,76.1,53.0,30.07,SW,218,4.0,9.0,44,0.00,,,0.00,weatherlink.com 1.10,2013-05-08 17:15:00,
2013-05-08 13:30:00,76.8,54.0,30.06,SE,145,4.0,10.0,46,0.00,,,0.00,weatherlink.com 1.10,2013-05-08 17:30:00,
2013-05-08 13:45:00,77.4,53.0,30.06,SSE,154,2.0,15.0,43,0.00,,,0.00,weatherlink.com 1.10,2013-05-08 17:45:00,
2013-05-08 14:00:00,77.3,53.0,30.06,SE,145,3.0,9.0,43,0.00,,,0.00,weatherlink.com 1.10,2013-05-08 18:00:00,
2013-05-08 14:15:00,76.4,55.0,30.05,SSE,153,8.0,13.0,47,0.00,,,0.00,weatherlink.com 1.10,2013-05-08 18:15:00,
2013-05-08 14:30:00,77.3,55.0,30.05,ESE,117,6.0,11.0,46,0.00,,,0.00,weatherlink.com 1.10,2013-05-08 18:30:00,
2013-05-08 14:45:00,76.6,55.0,30.04,SSE,157,3.0,13.0,47,0.00,,,0.00,weatherlink.com 1.10,2013-05-08 18:45:00,
2013-05-08 15:00:00,76.6,55.0,30.03,SW,230,2.0,11.0,47,0.00,,,0.00,weatherlink.com 1.10,2013-05-08 19:00:00,
2013-05-08 15:15:00,77.1,55.0,30.03,SW,236,2.0,10.0,47,0.00,,,0.00,weatherlink.com 1.10,2013-05-08 19:15:00,
2013-05-08 15:30:00,76.1,56.0,30.02,SE,135,3.0,5.0,50,0.00,,,0.00,weatherlink.com 1.10,2013-05-08 19:30:00,
2013-05-08 15:45:00,76.6,57.0,30.02,WNW,291,1.0,3.0,50,0.00,,,0.00,weatherlink.com 1.10,2013-05-08 19:45:00,
2013-05-08 16:00:00,76.1,56.0,30.02,SE,129,2.0,9.0,50,0.00,,,0.00,weatherlink.com 1.10,2013-05-08 20:00:00,
2013-05-08 16:15:00,76.0,56.0,30.01,SSE,158,4.0,8.0,51,0.00,,,0.00,weatherlink.com 1.10,2013-05-08 20:15:00,
2013-05-08 16:30:00,74.0,58.0,30.02,ESE,123,11.0,16.0,58,0.00,,,0.00,weatherlink.com 1.10,2013-05-08 20:30:00,
2013-05-08 16:45:00,68.7,58.0,30.03,WNW,285,2.0,11.0,69,0.01,,,0.01,weatherlink.com 1.10,2013-05-08 20:45:00,
2013-05-08 17:00:00,68.4,58.0,30.03,SW,229,2.0,8.0,69,0.01,,,0.01,weatherlink.com 1.10,2013-05-08 21:00:00,
2013-05-08 17:15:00,69.2,59.0,30.03,West,268,3.0,5.0,69,0.01,,,0.01,weatherlink.com 1.10,2013-05-08 21:15:00,
2013-05-08 17:30:00,69.8,60.0,30.03,SSE,164,0.0,5.0,70,0.01,,,0.01,weatherlink.com 1.10,2013-05-08 21:30:00,
2013-05-08 17:45:00,70.3,58.0,30.02,SE,141,0.0,4.0,66,0.00,,,0.01,weatherlink.com 1.10,2013-05-08 21:45:00,
2013-05-08 18:00:00,70.6,58.0,30.02,ENE,65,5.0,8.0,64,0.00,,,0.01,weatherlink.com 1.10,2013-05-08 22:00:00,
2013-05-08 18:15:00,70.2,58.0,30.02,ESE,113,1.0,4.0,65,0.00,,,0.01,weatherlink.com 1.10,2013-05-08 22:15:00,
2013-05-08 18:30:00,69.7,59.0,30.02,East,91,0.0,2.0,69,0.00,,,0.01,weatherlink.com 1.10,2013-05-08 22:30:00,
2013-05-08 18:45:00,68.8,61.0,30.02,East,82,1.0,2.0,76,0.01,,,0.02,weatherlink.com 1.10,2013-05-08 22:45:00,
2013-05-08 19:00:00,66.0,62.0,30.02,ESE,106,2.0,6.0,87,0.04,,,0.05,weatherlink.com 1.10,2013-05-08 23:00:00,
2013-05-08 19:15:00,64.9,62.0,30.03,SE,140,0.0,1.0,89,0.13,,,0.14,weatherlink.com 1.10,2013-05-08 23:15:00,
2013-05-08 19:30:00,64.2,62.0,30.02,East,101,0.0,1.0,91,0.15,,,0.16,weatherlink.com 1.10,2013-05-08 23:30:00,
2013-05-08 19:45:00,64.3,61.0,30.03,SW,222,0.0,2.0,89,0.15,,,0.17,weatherlink.com 1.10,2013-05-08 23:45:00,
2013-05-08 20:00:00,63.7,61.0,30.02,ENE,75,0.0,1.0,90,0.11,,,0.17,weatherlink.com 1.10,2013-05-09 00:00:00,
2013-05-08 20:15:00,63.1,61.0,30.02,ENE,75,0.0,1.0,93,0.02,,,0.17,weatherlink.com 1.10,2013-05-09 00:15:00,
2013-05-08 20:30:00,62.6,61.0,30.02,ENE,75,0.0,1.0,94,0.01,,,0.17,weatherlink.com 1.10,2013-05-09 00:30:00,
2013-05-08 20:45:00,62.5,61.0,30.02,ENE,75,0.0,1.0,94,0.00,,,0.17,weatherlink.com 1.10,2013-05-09 00:45:00,
2013-05-08 21:01:00,62.3,61.0,30.02,ENE,75,0.0,0.0,95,0.00,,,0.17,weatherlink.com 1.10,2013-05-09 01:01:00,
2013-05-08 21:16:00,62.3,61.0,30.02,ENE,75,0.0,0.0,95,0.00,,,0.17,weatherlink.com 1.10,2013-05-09 01:16:00,
2013-05-08 21:31:00,62.1,61.0,30.02,ENE,72,0.0,1.0,95,0.00,,,0.17,weatherlink.com 1.10,2013-05-09 01:31:00,
2013-05-08 21:46:00,62.0,61.0,30.02,ENE,72,0.0,1.0,95,0.00,,,0.17,weatherlink.com 1.10,2013-05-09 01:46:00,
2013-05-08 22:01:00,62.0,61.0,30.02,NNW,338,1.0,2.0,96,0.00,,,0.17,weatherlink.com 1.10,2013-05-09 02:01:00,
2013-05-08 22:16:00,62.0,61.0,30.02,NW,323,0.0,1.0,96,0.00,,,0.17,weatherlink.com 1.10,2013-05-09 02:16:00,
2013-05-08 22:31:00,61.9,61.0,30.02,ESE,108,0.0,1.0,95,0.00,,,0.17,weatherlink.com 1.10,2013-05-09 02:31:00,
2013-05-08 22:46:00,61.8,60.0,30.01,ESE,108,0.0,0.0,95,0.00,,,0.17,weatherlink.com 1.10,2013-05-09 02:46:00,
2013-05-08 23:01:00,61.8,61.0,30.01,South,181,0.0,0.0,96,0.00,,,0.17,weatherlink.com 1.10,2013-05-09 03:01:00,
2013-05-08 23:16:00,61.7,61.0,30.01,South,181,0.0,0.0,96,0.00,,,0.17,weatherlink.com 1.10,2013-05-09 03:16:00,
2013-05-08 23:31:00,61.5,60.0,30.00,South,172,0.0,0.0,96,0.00,,,0.17,weatherlink.com 1.10,2013-05-09 03:31:00,
2013-05-08 23:46:00,61.4,60.0,30.00,SSE,151,0.0,0.0,96,0.00,,,0.17,weatherlink.com 1.10,2013-05-09 03:46:00,